Time;durP1;ratioP1;P1;durP2;ratioP2;P2;SDS_P1;SDS_P2;PMS_P1;PMS_P2;Temp;Humidity;BMP_temperature;BMP_pressure;BME280_temperature;BME280_humidity;BME280_pressure;Samples;Min_cycle;Max_cycle;Signal;HPM_P1;HPM_P2
2022/09/11 00:01:46;;;;;;;7.00;3.73;;;20.20;86.40;;;;;;6082461;23;20175;-96
2022/09/11 00:04:20;;;;;;;5.97;3.83;;;20.20;86.20;;;;;;6082559;23;20255;-94
2022/09/11 00:07:00;;;;;;;8.13;4.53;;;20.10;86.00;;;;;;6081560;23;20674;-96
2022/09/11 00:09:28;;;;;;;8.30;4.70;;;20.10;86.20;;;;;;6082778;23;20269;-96
2022/09/11 00:11:56;;;;;;;11.50;5.57;;;20.10;86.00;;;;;;6083045;23;20182;-96
2022/09/11 00:14:27;;;;;;;8.87;5.07;;;20.10;85.80;;;;;;6082892;23;20182;-96
2022/09/11 00:17:32;;;;;;;15.93;6.07;;;20.10;86.10;;;;;;6073019;23;20182;-96
2022/09/11 00:20:00;;;;;;;8.57;4.73;;;20.10;86.90;;;;;;6075741;23;20200;-96
2022/09/11 00:22:28;;;;;;;7.43;4.17;;;20.00;86.00;;;;;;6079388;23;20178;-96
2022/09/11 00:24:58;;;;;;;11.90;5.57;;;20.00;86.10;;;;;;6082204;23;20205;-96
2022/09/11 00:27:38;;;;;;;10.40;5.33;;;20.00;86.30;;;;;;6085958;23;20241;-96
2022/09/11 00:30:46;;;;;;;15.57;6.07;;;20.00;86.90;;;;;;6088813;23;20155;-96
2022/09/11 00:36:42;;;;;;;7.13;4.07;;;19.90;87.20;;;;;;6091436;23;20174;-96
2022/09/11 00:39:16;;;;;;;10.13;4.90;;;19.90;86.80;;;;;;6087684;23;20811;-96
2022/09/11 00:41:50;;;;;;;10.63;5.23;;;19.90;86.40;;;;;;6071651;23;20293;-96
2022/09/11 00:44:55;;;;;;;7.27;4.33;;;19.80;86.70;;;;;;6073604;23;20204;-96
2022/09/11 00:47:31;;;;;;;8.20;4.70;;;19.80;86.80;;;;;;6073304;23;20170;-96
2022/09/11 00:50:42;;;;;;;7.20;4.17;;;19.80;86.70;;;;;;6073808;23;20200;-96
2022/09/11 00:53:21;;;;;;;7.33;4.50;;;19.80;86.90;;;;;;6072945;23;20257;-96
2022/09/11 00:55:58;;;;;;;12.60;6.07;;;19.70;86.80;;;;;;6075659;23;20301;-96
2022/09/11 00:58:36;;;;;;;10.63;5.37;;;19.70;86.70;;;;;;6073964;23;20266;-95
2022/09/11 01:01:13;;;;;;;9.23;5.23;;;19.70;87.50;;;;;;6074034;23;20593;-96
2022/09/11 01:03:43;;;;;;;9.40;5.33;;;19.60;86.70;;;;;;6072849;23;20181;-96
2022/09/11 01:06:17;;;;;;;12.00;5.17;;;19.70;87.50;;;;;;6072075;23;20182;-96
2022/09/11 01:08:46;;;;;;;9.30;5.33;;;19.60;87.50;;;;;;6070676;23;20201;-95
2022/09/11 01:11:56;;;;;;;7.03;4.27;;;19.60;87.40;;;;;;6069812;23;20504;-96
2022/09/11 01:14:37;;;;;;;5.30;4.17;;;19.60;87.40;;;;;;6073974;23;20179;-96
2022/09/11 01:17:20;;;;;;;10.00;5.00;;;19.50;87.30;;;;;;6072161;23;20235;-96
2022/09/11 01:20:17;;;;;;;10.10;5.23;;;19.60;87.40;;;;;;6071784;23;20213;-96
2022/09/11 01:26:46;;;;;;;11.07;5.10;;;19.50;87.30;;;;;;6070369;23;20193;-96
2022/09/11 01:29:21;;;;;;;14.00;5.43;;;19.40;86.90;;;;;;6066258;23;20198;-96
2022/09/11 01:31:54;;;;;;;6.40;4.77;;;19.40;87.60;;;;;;6070518;23;20181;-96
2022/09/11 01:34:32;;;;;;;9.20;4.87;;;19.40;87.20;;;;;;6072667;23;20607;-96
2022/09/11 01:37:07;;;;;;;8.33;5.13;;;19.30;87.20;;;;;;6072235;23;20237;-96
2022/09/11 01:39:42;;;;;;;13.63;5.53;;;19.30;87.50;;;;;;6072252;23;20201;-96
2022/09/11 01:42:16;;;;;;;9.40;5.03;;;19.30;87.60;;;;;;6073833;23;20181;-96
2022/09/11 01:48:05;;;;;;;8.60;4.20;;;19.30;88.10;;;;;;6065457;23;20213;-96
2022/09/11 01:54:01;;;;;;;6.93;4.00;;;19.20;88.00;;;;;;6060401;23;20190;-96
2022/09/11 01:59:55;;;;;;;12.10;5.90;;;19.20;87.70;;;;;;6024911;23;20201;-96
2022/09/11 02:02:29;;;;;;;6.37;4.50;;;19.20;87.20;;;;;;6069109;23;20253;-96
2022/09/11 02:05:57;;;;;;;16.37;6.33;;;19.10;87.40;;;;;;6069226;23;20169;-96
2022/09/11 02:11:17;;;;;;;8.10;5.07;;;19.00;86.90;;;;;;6013275;23;20271;-96
2022/09/11 02:13:51;;;;;;;10.07;5.13;;;19.00;86.80;;;;;;6051436;23;20174;-96
2022/09/11 02:16:24;;;;;;;12.47;6.17;;;19.00;86.80;;;;;;6073924;23;20179;-95
2022/09/11 02:19:01;;;;;;;9.60;5.53;;;19.00;87.00;;;;;;6073261;23;20257;-96
2022/09/11 02:21:34;;;;;;;7.70;4.40;;;19.00;87.40;;;;;;6072529;23;20240;-95
2022/09/11 02:24:04;;;;;;;6.50;4.43;;;19.00;88.40;;;;;;6074445;23;20182;-96
2022/09/11 02:26:43;;;;;;;13.37;5.77;;;18.90;87.70;;;;;;6073738;23;20176;-96
2022/09/11 02:29:11;;;;;;;8.43;4.70;;;18.90;87.80;;;;;;6071325;23;20174;-94
2022/09/11 02:31:43;;;;;;;10.33;5.47;;;18.90;87.70;;;;;;6047291;23;20185;-94
2022/09/11 02:34:13;;;;;;;8.43;4.40;;;18.90;87.80;;;;;;6073492;23;20170;-95
2022/09/11 02:37:03;;;;;;;11.63;5.37;;;18.80;87.90;;;;;;6072097;23;20510;-96
2022/09/11 02:40:09;;;;;;;18.63;7.53;;;18.90;88.70;;;;;;6071174;23;20173;-95
2022/09/11 02:42:51;;;;;;;10.50;5.17;;;18.90;88.60;;;;;;6074082;23;20170;-96
2022/09/11 02:45:34;;;;;;;12.00;5.20;;;18.80;88.30;;;;;;6074645;23;20198;-96
2022/09/11 02:48:49;;;;;;;7.80;4.23;;;18.80;88.10;;;;;;6075448;23;20232;-94
2022/09/11 02:51:29;;;;;;;12.10;5.57;;;18.80;88.70;;;;;;6038328;23;20213;-96
2022/09/11 02:54:16;;;;;;;5.97;3.77;;;18.70;88.60;;;;;;6075458;23;20175;-96
2022/09/11 02:56:48;;;;;;;9.23;4.93;;;18.70;89.00;;;;;;6074755;23;20206;-96
2022/09/11 02:59:24;;;;;;;10.93;5.23;;;18.70;88.60;;;;;;6074905;23;20220;-96
2022/09/11 03:01:54;;;;;;;8.80;4.70;;;18.70;88.40;;;;;;6072746;23;20247;-96
2022/09/11 03:04:33;;;;;;;11.43;5.40;;;18.70;88.40;;;;;;6072321;23;20181;-96
2022/09/11 03:07:10;;;;;;;6.20;4.03;;;18.70;88.70;;;;;;6073979;23;20173;-96
2022/09/11 03:09:44;;;;;;;8.83;4.60;;;18.60;88.70;;;;;;6074294;23;20175;-96
2022/09/11 03:12:17;;;;;;;10.03;4.77;;;18.60;88.50;;;;;;6074384;23;20175;-96
2022/09/11 03:14:47;;;;;;;10.80;5.13;;;18.60;88.20;;;;;;6072797;23;20232;-96
2022/09/11 03:23:59;;;;;;;8.07;4.27;;;18.60;88.50;;;;;;6099819;23;20183;-96
2022/09/11 03:27:07;;;;;;;14.93;5.63;;;18.50;88.50;;;;;;6100220;23;20181;-96
2022/09/11 03:29:39;;;;;;;13.17;5.53;;;18.50;88.90;;;;;;6099626;23;20175;-96
2022/09/11 03:32:09;;;;;;;10.80;4.97;;;18.50;88.40;;;;;;6103413;23;20184;-96
2022/09/11 03:34:40;;;;;;;7.20;4.30;;;18.50;88.80;;;;;;6109977;23;20176;-96
2022/09/11 03:40:21;;;;;;;19.40;7.20;;;18.50;89.60;;;;;;5984118;24;20210;-96
2022/09/11 03:46:11;;;;;;;10.47;5.27;;;18.40;89.20;;;;;;6090626;23;20184;-96
2022/09/11 03:48:39;;;;;;;6.83;4.17;;;18.50;90.10;;;;;;6086704;23;20235;-96
2022/09/11 03:51:10;;;;;;;9.03;4.87;;;18.40;88.90;;;;;;6100378;23;20195;-96
2022/09/11 03:53:39;;;;;;;17.20;6.50;;;18.50;89.50;;;;;;6100265;23;20184;-96
2022/09/11 03:56:10;;;;;;;7.57;4.50;;;18.40;89.40;;;;;;6101549;23;20181;-96
2022/09/11 03:58:44;;;;;;;13.13;5.37;;;18.40;89.60;;;;;;6105391;23;20259;-96
2022/09/11 04:01:26;;;;;;;11.77;5.27;;;18.40;89.80;;;;;;6106429;23;20262;-96
2022/09/11 04:03:55;;;;;;;9.40;4.70;;;18.40;89.80;;;;;;6106387;23;20263;-96
2022/09/11 04:06:41;;;;;;;20.53;7.80;;;18.40;89.30;;;;;;6099366;23;20563;-96
2022/09/11 04:09:09;;;;;;;11.00;5.60;;;18.40;89.20;;;;;;6097922;23;20209;-96
2022/09/11 04:11:38;;;;;;;16.63;7.43;;;18.40;89.40;;;;;;6098147;23;20176;-96
2022/09/11 04:14:09;;;;;;;10.77;5.73;;;18.30;88.70;;;;;;6100023;23;20190;-96
2022/09/11 04:16:42;;;;;;;16.80;7.60;;;18.30;88.70;;;;;;6098023;23;20176;-95
2022/09/11 04:22:44;;;;;;;13.70;6.47;;;18.20;90.10;;;;;;6077177;23;20190;-96
2022/09/11 04:28:38;;;;;;;8.67;5.60;;;18.20;89.50;;;;;;6024344;23;21378;-96
2022/09/11 04:38:00;;;;;;;10.30;6.10;;;18.10;89.50;;;;;;6069029;23;20175;-96
2022/09/11 04:41:01;;;;;;;12.07;6.53;;;18.10;89.20;;;;;;6106348;23;20191;-96
2022/09/11 04:43:34;;;;;;;7.80;5.90;;;18.00;89.50;;;;;;6103050;23;20178;-96
2022/09/11 04:46:05;;;;;;;10.37;7.20;;;18.10;89.40;;;;;;6103305;23;20195;-96
2022/09/11 04:48:51;;;;;;;12.00;7.43;;;18.00;89.40;;;;;;6104569;23;20172;-95
2022/09/11 04:55:13;;;;;;;13.83;8.50;;;18.00;90.20;;;;;;6100369;23;20178;-96
2022/09/11 04:57:42;;;;;;;12.90;8.80;;;18.00;90.30;;;;;;6101007;23;20626;-96
2022/09/11 05:00:18;;;;;;;14.53;9.23;;;17.90;90.00;;;;;;6102210;23;20262;-96
2022/09/11 05:02:46;;;;;;;13.33;8.43;;;17.90;90.60;;;;;;6103147;23;20190;-96
2022/09/11 05:05:14;;;;;;;15.07;9.20;;;18.00;90.50;;;;;;6102737;23;20181;-96
2022/09/11 05:08:17;;;;;;;16.57;9.10;;;18.00;90.70;;;;;;6101357;23;20179;-96
2022/09/11 05:11:16;;;;;;;14.47;8.47;;;18.00;91.40;;;;;;6101401;23;20170;-96
2022/09/11 05:17:08;;;;;;;10.83;8.73;;;18.00;91.20;;;;;;6077818;23;20211;-94
2022/09/11 05:19:35;;;;;;;14.07;8.03;;;18.00;91.60;;;;;;6108315;23;20173;-95
2022/09/11 05:22:08;;;;;;;15.97;9.20;;;18.00;91.40;;;;;;6106631;23;20188;-96
2022/09/11 05:24:57;;;;;;;8.30;7.37;;;18.00;92.40;;;;;;6111788;23;20175;-96
2022/09/11 05:27:27;;;;;;;19.00;9.67;;;18.10;92.10;;;;;;6099875;23;20180;-96
2022/09/11 05:29:56;;;;;;;11.27;7.67;;;18.10;91.90;;;;;;6100702;23;20183;-95
2022/09/11 05:32:53;;;;;;;14.40;8.80;;;18.10;91.90;;;;;;6099181;23;20618;-96
2022/09/11 05:35:24;;;;;;;11.90;8.03;;;18.10;92.20;;;;;;6100576;23;20243;-94
2022/09/11 05:37:55;;;;;;;14.77;9.47;;;18.20;92.20;;;;;;6103190;23;20259;-95
2022/09/11 05:40:23;;;;;;;17.50;9.70;;;18.20;92.10;;;;;;6099510;23;20192;-96
2022/09/11 05:49:40;;;;;;;11.20;9.20;;;18.30;92.50;;;;;;6052645;23;20270;-96
2022/09/11 05:55:46;;;;;;;17.43;10.77;;;18.30;92.50;;;;;;6102937;23;20241;-96
2022/09/11 05:58:16;;;;;;;22.97;12.30;;;18.40;92.30;;;;;;6101479;23;20175;-96
2022/09/11 06:00:48;;;;;;;18.27;11.57;;;18.40;92.10;;;;;;6103363;23;20180;-96
2022/09/11 06:03:48;;;;;;;16.53;10.93;;;18.40;92.20;;;;;;6106693;23;20229;-96
2022/09/11 06:06:48;;;;;;;18.63;11.43;;;18.40;92.50;;;;;;6108275;23;20192;-96
2022/09/11 06:09:18;;;;;;;24.00;12.53;;;18.40;92.40;;;;;;6110537;23;20176;-96
2022/09/11 06:11:52;;;;;;;23.40;11.90;;;18.50;91.90;;;;;;6119552;23;20216;-95
2022/09/11 06:14:20;;;;;;;16.83;10.97;;;18.50;92.10;;;;;;6111597;23;20200;-95
2022/09/11 06:17:00;;;;;;;17.67;11.33;;;18.60;92.20;;;;;;6103061;23;20191;-94
2022/09/11 06:19:30;;;;;;;15.40;10.50;;;18.50;92.40;;;;;;6107132;23;20176;-96
2022/09/11 06:25:32;;;;;;;22.30;12.33;;;18.60;92.70;;;;;;6077202;23;20300;-95
2022/09/11 06:28:01;;;;;;;13.23;9.97;;;18.60;92.60;;;;;;6106474;23;20305;-96
2022/09/11 06:31:28;;;;;;;19.43;13.00;;;18.70;92.60;;;;;;6103310;23;20244;-94
2022/09/11 06:33:59;;;;;;;19.43;12.37;;;18.70;92.90;;;;;;6019706;23;20219;-95
2022/09/11 06:36:28;;;;;;;14.97;10.50;;;18.70;92.40;;;;;;6106421;23;20232;-95
2022/09/11 06:38:59;;;;;;;12.03;10.67;;;18.70;92.40;;;;;;6105283;23;20176;-95
2022/09/11 06:41:29;;;;;;;14.17;11.17;;;18.70;92.60;;;;;;6103033;23;20283;-96
2022/09/11 06:46:58;;;;;;;13.27;10.00;;;18.80;92.80;;;;;;6100523;23;20179;-96
2022/09/11 06:49:25;;;;;;;14.33;10.50;;;18.80;92.60;;;;;;6102764;23;20197;-96
2022/09/11 06:52:11;;;;;;;14.30;10.00;;;18.80;92.60;;;;;;6104767;23;20179;-96
2022/09/11 06:57:55;;;;;;;15.67;11.33;;;18.90;92.90;;;;;;6103190;23;20251;-96
2022/09/11 07:00:25;;;;;;;14.70;10.97;;;19.00;93.60;;;;;;6079258;23;20231;-96
2022/09/11 07:03:01;;;;;;;19.33;12.30;;;19.00;93.40;;;;;;6105147;23;20231;-95
2022/09/11 07:05:32;;;;;;;14.30;10.07;;;19.00;93.50;;;;;;6105657;23;20197;-95
2022/09/11 07:08:04;;;;;;;15.20;11.20;;;19.10;93.80;;;;;;6103885;23;20179;-96
2022/09/11 07:10:39;;;;;;;20.90;12.57;;;19.10;94.40;;;;;;6100043;23;20510;-96
2022/09/11 07:13:14;;;;;;;18.47;11.67;;;19.20;94.30;;;;;;6104342;23;20297;-96
2022/09/11 07:15:48;;;;;;;14.80;10.23;;;19.20;94.40;;;;;;6109335;23;20653;-94
2022/09/11 07:18:17;;;;;;;15.30;10.67;;;19.30;94.50;;;;;;6109508;23;20201;-95
2022/09/11 07:20:44;;;;;;;13.37;9.83;;;19.40;94.40;;;;;;6105461;23;20180;-95
2022/09/11 07:23:27;;;;;;;21.77;11.70;;;19.40;94.30;;;;;;6104516;23;20282;-96
2022/09/11 07:25:55;;;;;;;13.87;8.97;;;19.50;95.10;;;;;;6106981;23;20185;-96
2022/09/11 07:28:24;;;;;;;12.90;9.83;;;19.50;94.50;;;;;;6106862;23;20176;-95
2022/09/11 07:30:51;;;;;;;13.83;9.57;;;19.60;94.80;;;;;;6105927;23;20261;-95
2022/09/11 07:33:21;;;;;;;15.53;10.27;;;19.60;94.60;;;;;;6102033;23;20192;-95
2022/09/11 07:35:48;;;;;;;9.90;8.90;;;19.70;94.80;;;;;;6100959;23;20185;-96
2022/09/11 07:38:17;;;;;;;14.63;9.77;;;19.80;94.80;;;;;;6102260;23;20588;-95
2022/09/11 07:40:48;;;;;;;14.17;9.40;;;19.80;95.10;;;;;;6100343;23;20163;-95
2022/09/11 07:43:21;;;;;;;13.37;9.43;;;20.00;95.40;;;;;;6100284;23;20249;-95
2022/09/11 07:45:57;;;;;;;13.77;8.97;;;20.00;95.40;;;;;;6100829;23;20678;-95
2022/09/11 07:48:24;;;;;;;13.63;7.83;;;20.10;95.40;;;;;;6099845;23;20525;-95
2022/09/11 07:51:04;;;;;;;14.87;9.53;;;20.20;95.50;;;;;;6102456;23;20177;-95
2022/09/11 07:53:35;;;;;;;14.80;9.07;;;20.20;95.50;;;;;;6101998;23;20668;-96
2022/09/11 07:56:10;;;;;;;9.00;7.10;;;20.30;95.10;;;;;;6102910;23;20171;-95
2022/09/11 07:58:40;;;;;;;16.30;8.63;;;20.40;95.40;;;;;;6100421;23;20196;-95
2022/09/11 08:01:14;;;;;;;14.60;7.97;;;20.50;95.20;;;;;;6101285;23;20172;-93
2022/09/11 08:03:43;;;;;;;15.37;8.77;;;20.60;95.30;;;;;;6102451;23;20689;-95
2022/09/11 08:06:14;;;;;;;11.17;7.40;;;20.70;95.10;;;;;;6100056;23;20182;-95
2022/09/11 08:08:41;;;;;;;11.03;6.57;;;20.80;95.20;;;;;;6099631;23;20183;-94
2022/09/11 08:11:12;;;;;;;13.03;5.97;;;20.80;95.00;;;;;;6102865;23;20177;-94
2022/09/11 08:13:41;;;;;;;7.20;4.40;;;20.90;95.20;;;;;;6102958;23;20256;-94
2022/09/11 08:16:14;;;;;;;12.33;5.73;;;21.10;94.90;;;;;;6102068;23;20213;-94
2022/09/11 08:18:43;;;;;;;9.67;4.73;;;21.10;94.60;;;;;;6078441;23;20207;-94
2022/09/11 08:21:12;;;;;;;12.33;5.70;;;21.20;94.60;;;;;;6103317;23;20217;-93
2022/09/11 08:23:53;;;;;;;13.53;5.97;;;21.30;94.20;;;;;;6100468;23;20680;-94
2022/09/11 08:26:27;;;;;;;8.70;3.83;;;21.40;94.50;;;;;;6101025;23;20189;-94
2022/09/11 08:28:57;;;;;;;9.40;4.43;;;21.50;94.10;;;;;;6101963;23;20237;-94
2022/09/11 08:31:27;;;;;;;10.87;4.40;;;21.60;93.80;;;;;;6101641;23;20175;-95
2022/09/11 08:33:56;;;;;;;10.90;4.47;;;21.70;93.30;;;;;;6105107;23;20175;-95
2022/09/11 08:36:26;;;;;;;10.33;4.07;;;21.80;92.80;;;;;;6074048;23;20970;-94
2022/09/11 08:38:54;;;;;;;6.93;3.33;;;21.90;93.10;;;;;;6105893;23;20202;-95
2022/09/11 08:41:32;;;;;;;10.83;3.90;;;22.00;93.30;;;;;;6114803;23;20175;-94
2022/09/11 08:44:06;;;;;;;11.67;3.93;;;22.20;93.00;;;;;;6115934;23;20170;-94
2022/09/11 08:46:41;;;;;;;10.77;4.17;;;22.30;93.50;;;;;;6116142;23;20176;-95
2022/09/11 08:49:17;;;;;;;6.00;3.50;;;22.50;92.50;;;;;;6109214;23;20298;-94
2022/09/11 08:51:48;;;;;;;7.00;3.60;;;22.70;93.60;;;;;;6103472;23;20182;-94
2022/09/11 08:54:26;;;;;;;6.20;3.10;;;22.90;92.80;;;;;;6109421;23;20189;-94
2022/09/11 08:57:10;;;;;;;7.37;2.47;;;23.10;92.00;;;;;;6110903;23;20608;-95
2022/09/11 09:00:10;;;;;;;8.63;3.77;;;23.40;92.20;;;;;;6111565;23;20186;-95
2022/09/11 09:03:22;;;;;;;6.67;3.00;;;23.70;91.70;;;;;;6109905;23;20203;-94
2022/09/11 09:05:59;;;;;;;7.03;2.57;;;24.00;91.90;;;;;;6088758;23;20183;-94
2022/09/11 09:08:46;;;;;;;8.80;3.57;;;24.30;90.80;;;;;;6113517;23;20181;-94
2022/09/11 09:11:23;;;;;;;7.03;2.47;;;24.60;88.60;;;;;;6110091;23;20179;-93
2022/09/11 09:14:14;;;;;;;5.63;2.27;;;24.80;86.10;;;;;;6105750;23;20182;-94
2022/09/11 09:16:51;;;;;;;3.13;1.73;;;25.00;84.30;;;;;;6105413;23;20167;-95
2022/09/11 09:19:24;;;;;;;7.73;3.50;;;25.20;82.00;;;;;;6104587;23;20179;-93
2022/09/11 09:22:05;;;;;;;6.13;2.43;;;25.30;82.00;;;;;;6104218;23;20286;-93
2022/09/11 09:24:47;;;;;;;6.57;2.97;;;25.40;78.50;;;;;;6104295;23;20223;-94
2022/09/11 09:27:27;;;;;;;5.83;2.77;;;25.50;80.40;;;;;;6108717;23;20177;-94
2022/09/11 09:29:57;;;;;;;6.90;2.93;;;25.50;78.10;;;;;;6104827;23;20178;-94
2022/09/11 09:32:31;;;;;;;8.77;3.63;;;25.60;79.20;;;;;;6104902;23;20203;-93
2022/09/11 09:35:03;;;;;;;7.53;3.60;;;25.60;76.50;;;;;;6100245;23;20210;-92
2022/09/11 09:37:36;;;;;;;10.33;3.47;;;25.60;76.90;;;;;;6101969;23;20199;-92
2022/09/11 09:40:08;;;;;;;7.23;3.17;;;25.50;76.40;;;;;;6104813;23;20191;-94
2022/09/11 09:43:04;;;;;;;6.40;3.23;;;25.50;76.50;;;;;;6079714;23;20203;-93
2022/09/11 09:45:43;;;;;;;6.00;2.90;;;25.50;76.10;;;;;;6099178;23;20203;-93
2022/09/11 09:48:21;;;;;;;6.70;2.93;;;25.60;76.70;;;;;;6103900;23;20175;-95
2022/09/11 09:50:50;;;;;;;7.53;3.03;;;25.60;74.50;;;;;;6103251;23;20175;-96
2022/09/11 09:53:42;;;;;;;5.40;2.30;;;25.60;76.60;;;;;;6104767;23;20555;-95
2022/09/11 09:56:19;;;;;;;3.27;2.00;;;25.80;78.40;;;;;;6103136;23;20174;-95
2022/09/11 09:58:55;;;;;;;5.90;2.60;;;25.90;76.70;;;;;;6104851;23;20175;-95
2022/09/11 10:01:48;;;;;;;5.27;2.70;;;26.10;75.40;;;;;;6101399;23;20632;-95
2022/09/11 10:04:21;;;;;;;7.27;3.27;;;26.20;73.60;;;;;;6094604;23;20175;-95
2022/09/11 10:06:52;;;;;;;6.70;3.40;;;26.40;77.10;;;;;;6102365;23;20612;-95
2022/09/11 10:09:31;;;;;;;7.93;3.40;;;26.60;75.10;;;;;;6102777;23;20175;-95
2022/09/11 10:12:05;;;;;;;8.57;3.30;;;26.90;75.90;;;;;;6108292;23;20619;-95
2022/09/11 10:14:53;;;;;;;4.27;1.93;;;27.10;74.60;;;;;;6109262;23;20178;-95
2022/09/11 10:17:31;;;;;;;5.37;2.60;;;27.30;74.40;;;;;;6110105;23;20179;-95
2022/09/11 10:20:22;;;;;;;5.70;2.27;;;27.50;74.20;;;;;;6113581;23;20175;-96
2022/09/11 10:22:52;;;;;;;5.80;2.60;;;27.70;72.60;;;;;;6105123;23;20274;-95
2022/09/11 10:25:25;;;;;;;8.87;3.90;;;27.90;71.10;;;;;;6105346;23;20700;-96
2022/09/11 10:28:07;;;;;;;8.37;3.43;;;28.00;69.80;;;;;;6077721;23;20250;-94
2022/09/11 10:30:42;;;;;;;4.20;2.43;;;28.10;68.40;;;;;;6105242;23;20182;-95
2022/09/11 10:33:19;;;;;;;10.23;4.03;;;28.20;69.20;;;;;;6103305;23;20177;-95
2022/09/11 10:35:52;;;;;;;4.13;2.07;;;28.40;67.10;;;;;;6101795;23;20186;-95
2022/09/11 10:38:21;;;;;;;6.60;3.20;;;28.50;67.20;;;;;;6106017;23;20175;-94
2022/09/11 10:41:12;;;;;;;3.67;2.30;;;28.50;68.30;;;;;;6106575;23;20633;-94
2022/09/11 10:43:49;;;;;;;4.00;2.40;;;28.70;66.70;;;;;;6110731;23;20270;-96
2022/09/11 10:46:45;;;;;;;7.47;3.30;;;28.80;66.50;;;;;;6111564;23;20228;-93
2022/09/11 10:49:19;;;;;;;6.93;2.70;;;28.90;65.50;;;;;;6059500;23;20285;-94
2022/09/11 10:52:16;;;;;;;6.57;2.50;;;29.00;65.40;;;;;;6112299;23;20167;-94
2022/09/11 10:55:00;;;;;;;7.80;3.27;;;29.00;63.60;;;;;;6111953;23;20171;-95
2022/09/11 10:57:45;;;;;;;5.53;2.53;;;29.10;63.20;;;;;;6111578;23;20171;-96
2022/09/11 11:00:18;;;;;;;6.27;2.53;;;29.10;62.70;;;;;;6112658;23;20178;-95
2022/09/11 11:02:48;;;;;;;5.97;2.50;;;29.10;64.10;;;;;;6110039;23;20195;-95
2022/09/11 11:05:23;;;;;;;7.07;2.67;;;29.00;63.60;;;;;;6111863;23;20203;-95
2022/09/11 11:08:20;;;;;;;3.80;1.77;;;28.90;62.70;;;;;;6109733;23;20181;-93
2022/09/11 11:11:07;;;;;;;2.23;1.60;;;28.80;61.90;;;;;;6103810;23;20185;-95
2022/09/11 11:13:56;;;;;;;3.57;1.80;;;28.80;62.30;;;;;;6104611;23;20175;-95
2022/09/11 11:16:38;;;;;;;4.63;2.03;;;28.70;62.60;;;;;;6105711;23;20179;-95
2022/09/11 11:19:31;;;;;;;5.80;2.47;;;28.70;61.80;;;;;;6080641;23;20226;-96
2022/09/11 11:22:20;;;;;;;8.70;2.53;;;28.60;60.20;;;;;;6105234;23;20171;-94
2022/09/11 11:25:06;;;;;;;7.67;2.37;;;28.60;60.50;;;;;;6105829;23;20558;-95
2022/09/11 11:28:17;;;;;;;6.43;2.67;;;28.60;60.90;;;;;;6104118;23;20214;-95
2022/09/11 11:30:57;;;;;;;5.60;2.50;;;28.60;60.50;;;;;;6104042;23;20181;-95
2022/09/11 11:33:49;;;;;;;4.43;1.90;;;28.80;60.80;;;;;;6108070;23;20174;-95
2022/09/11 11:36:27;;;;;;;5.13;2.40;;;28.80;60.60;;;;;;6106279;23;20239;-95
2022/09/11 11:39:24;;;;;;;5.40;2.37;;;29.00;62.40;;;;;;6110853;23;20175;-94
2022/09/11 11:42:06;;;;;;;4.20;2.73;;;29.10;62.70;;;;;;6112149;23;20174;-95
2022/09/11 11:44:49;;;;;;;7.83;3.20;;;29.30;61.70;;;;;;6104538;23;20178;-94
2022/09/11 11:47:26;;;;;;;5.97;2.50;;;29.40;61.30;;;;;;6105800;23;20221;-94
2022/09/11 11:50:11;;;;;;;5.63;2.80;;;29.60;60.70;;;;;;6104160;23;20206;-96
2022/09/11 11:52:53;;;;;;;7.30;2.50;;;29.70;60.70;;;;;;6102596;23;20246;-96
2022/09/11 11:55:46;;;;;;;7.77;3.50;;;29.80;60.10;;;;;;6104237;23;20167;-95
2022/09/11 11:58:27;;;;;;;4.97;2.23;;;29.80;59.00;;;;;;6104787;23;20535;-95
2022/09/11 12:01:06;;;;;;;3.90;1.87;;;29.90;59.10;;;;;;6103969;23;20182;-95
2022/09/11 12:03:39;;;;;;;4.57;2.13;;;29.90;59.10;;;;;;6104464;23;20198;-96
2022/09/11 12:06:08;;;;;;;3.90;2.03;;;29.90;59.20;;;;;;6104293;23;20175;-96
2022/09/11 12:08:44;;;;;;;3.97;2.30;;;29.90;59.30;;;;;;6103782;23;20171;-95
2022/09/11 12:11:16;;;;;;;5.20;2.70;;;29.90;58.20;;;;;;6102549;23;20167;-94
2022/09/11 12:13:51;;;;;;;3.77;2.30;;;29.80;58.60;;;;;;6101864;23;20562;-96
2022/09/11 12:16:22;;;;;;;5.37;2.23;;;29.90;58.80;;;;;;6102869;23;20202;-96
2022/09/11 12:19:18;;;;;;;5.07;3.03;;;29.90;58.60;;;;;;6104516;23;20182;-96
2022/09/11 12:22:31;;;;;;;6.57;3.37;;;29.80;57.80;;;;;;6099884;23;20214;-96
2022/09/11 12:25:02;;;;;;;5.87;3.33;;;29.80;57.40;;;;;;6101513;23;20178;-95
2022/09/11 12:27:54;;;;;;;4.30;2.43;;;29.80;58.30;;;;;;6102126;23;20660;-96
2022/09/11 12:30:25;;;;;;;6.10;2.80;;;29.80;57.60;;;;;;6103967;23;20190;-95
2022/09/11 12:36:32;;;;;;;6.53;3.37;;;29.60;57.80;;;;;;6075338;23;20342;-96
2022/09/11 12:39:44;;;;;;;7.33;2.97;;;29.40;57.50;;;;;;6098878;23;20226;-96
2022/09/11 12:42:49;;;;;;;7.97;3.67;;;29.40;58.10;;;;;;6098887;23;20202;-95
2022/09/11 12:45:50;;;;;;;6.20;2.83;;;29.30;57.60;;;;;;6097193;23;20250;-96
2022/09/11 12:48:34;;;;;;;6.13;2.87;;;29.20;57.80;;;;;;6063694;23;20222;-95
2022/09/11 12:51:04;;;;;;;8.80;3.97;;;29.10;57.80;;;;;;6117158;23;20701;-96
2022/09/11 12:59:25;;;;;;;4.77;2.47;;;29.00;57.70;;;;;;6024233;23;20180;-96
2022/09/11 13:01:55;;;;;;;4.43;2.63;;;28.90;57.70;;;;;;6046423;23;20180;-96
2022/09/11 13:04:26;;;;;;;4.27;2.30;;;28.90;58.30;;;;;;6046134;23;20252;-96
2022/09/11 13:10:36;;;;;;;4.87;2.60;;;28.80;57.80;;;;;;6047438;23;20167;-96
2022/09/11 13:13:36;;;;;;;6.20;3.03;;;28.70;57.90;;;;;;6047204;23;20172;-96
2022/09/11 13:16:19;;;;;;;7.17;3.27;;;28.70;57.90;;;;;;6038352;23;20176;-96
2022/09/11 13:18:57;;;;;;;6.00;2.83;;;28.60;57.60;;;;;;6045240;23;20176;-96
2022/09/11 13:21:27;;;;;;;6.00;3.00;;;28.60;57.80;;;;;;6045180;23;20180;-96
2022/09/11 13:24:35;;;;;;;6.93;3.10;;;28.60;58.30;;;;;;6045563;23;20208;-96
2022/09/11 13:27:08;;;;;;;7.70;3.17;;;28.60;57.80;;;;;;6042133;23;20180;-96
2022/09/11 13:29:41;;;;;;;6.03;2.53;;;28.50;58.30;;;;;;6052870;23;20172;-95
2022/09/11 13:32:15;;;;;;;8.67;2.93;;;28.50;58.40;;;;;;6048158;23;20196;-94
2022/09/11 13:41:24;;;;;;;7.43;2.70;;;28.50;57.90;;;;;;6123140;23;20214;-96
2022/09/11 13:44:31;;;;;;;5.50;2.77;;;28.40;57.80;;;;;;6128020;23;20545;-96
2022/09/11 13:47:00;;;;;;;4.77;2.80;;;28.40;58.00;;;;;;6133028;23;20178;-96
2022/09/11 13:53:15;;;;;;;19.17;8.37;;;28.50;57.90;;;;;;6068278;23;20182;-96
2022/09/11 13:56:23;;;;;;;7.40;2.40;;;28.60;57.40;;;;;;6085364;23;20253;-96
2022/09/11 13:58:52;;;;;;;4.30;2.17;;;28.70;57.50;;;;;;6108221;23;20203;-96
2022/09/11 14:01:26;;;;;;;5.73;3.03;;;28.80;57.80;;;;;;6109675;23;20226;-96
2022/09/11 14:07:25;;;;;;;6.97;2.60;;;28.90;56.50;;;;;;6112941;23;20174;-96
2022/09/11 14:10:07;;;;;;;7.70;3.73;;;29.00;56.60;;;;;;6112001;23;20175;-96
2022/09/11 14:12:49;;;;;;;4.97;3.03;;;29.00;56.40;;;;;;6107761;23;20175;-96
2022/09/11 14:15:26;;;;;;;6.97;3.20;;;29.00;56.50;;;;;;6069001;23;20206;-96
2022/09/11 14:21:23;;;;;;;5.90;3.10;;;29.00;55.60;;;;;;6106753;23;20234;-96
2022/09/11 14:24:13;;;;;;;4.47;2.40;;;29.00;55.80;;;;;;6082767;23;20202;-96
2022/09/11 14:27:03;;;;;;;6.57;2.93;;;29.00;56.10;;;;;;6099961;23;20179;-96
2022/09/11 14:29:40;;;;;;;6.63;2.80;;;29.00;55.60;;;;;;6104521;23;20234;-96
2022/09/11 14:35:37;;;;;;;4.43;2.43;;;29.00;56.00;;;;;;6080299;23;20174;-95
2022/09/11 14:38:07;;;;;;;4.53;2.70;;;29.00;56.20;;;;;;6099308;23;20210;-95
2022/09/11 14:40:40;;;;;;;6.93;3.40;;;29.00;56.60;;;;;;6103762;23;20183;-96
2022/09/11 14:43:12;;;;;;;8.00;4.03;;;29.00;57.10;;;;;;6105675;23;20174;-96
2022/09/11 14:45:39;;;;;;;8.60;3.10;;;28.90;56.70;;;;;;6105444;23;20175;-95
2022/09/11 14:48:13;;;;;;;7.47;3.37;;;29.00;57.30;;;;;;6106887;23;20223;-95
2022/09/11 14:50:44;;;;;;;8.27;3.40;;;29.00;57.30;;;;;;6107786;23;20219;-96
2022/09/11 14:53:24;;;;;;;5.73;2.83;;;28.90;57.10;;;;;;6106467;23;20179;-96
2022/09/11 14:55:51;;;;;;;3.80;2.40;;;29.00;57.30;;;;;;6109229;23;20171;-96
2022/09/11 14:58:27;;;;;;;6.23;2.80;;;29.00;57.30;;;;;;6107147;23;20672;-95
2022/09/11 15:00:55;;;;;;;5.70;2.77;;;29.00;57.10;;;;;;6108156;23;20171;-96
2022/09/11 15:03:24;;;;;;;7.23;3.53;;;29.00;57.90;;;;;;6112036;23;20174;-94
2022/09/11 15:05:55;;;;;;;5.20;3.03;;;29.00;57.20;;;;;;6111156;23;20175;-96
2022/09/11 15:08:26;;;;;;;4.30;2.47;;;28.90;57.20;;;;;;6107155;23;20544;-96
2022/09/11 15:10:55;;;;;;;8.77;3.63;;;28.80;56.90;;;;;;6107440;23;20185;-96
2022/09/11 15:13:35;;;;;;;5.70;2.80;;;28.90;56.80;;;;;;6102444;23;20208;-95
2022/09/11 15:16:08;;;;;;;8.80;3.23;;;28.80;56.60;;;;;;6102876;23;20203;-95
2022/09/11 15:18:39;;;;;;;6.87;3.27;;;28.80;57.00;;;;;;6100687;23;20178;-95
2022/09/11 15:21:07;;;;;;;3.97;2.40;;;28.70;57.30;;;;;;6099788;23;20178;-95
2022/09/11 15:23:36;;;;;;;5.23;2.67;;;28.70;57.10;;;;;;6101526;23;20693;-94